createdAt,value
2018-09-24T00:01:14.012Z,15.40
2018-09-24T00:06:17.765Z,15.30
2018-09-24T00:11:21.668Z,15.30
2018-09-24T00:16:25.332Z,15.50
2018-09-24T00:21:29.559Z,15.60
2018-09-24T00:26:33.743Z,15.50
2018-09-24T00:31:37.385Z,15.50
2018-09-24T00:36:43.783Z,15.40
2018-09-24T00:41:47.850Z,15.30
2018-09-24T00:46:51.503Z,15.20
2018-09-24T00:51:55.123Z,15.10
2018-09-24T00:57:09.134Z,15.00
2018-09-24T01:02:13.128Z,15.00
2018-09-24T01:07:16.760Z,15.00
2018-09-24T01:12:23.995Z,14.80
2018-09-24T01:17:27.799Z,14.70
2018-09-24T01:22:32.227Z,14.70
2018-09-24T01:27:37.282Z,14.50
2018-09-24T01:32:40.890Z,14.50
2018-09-24T01:37:44.955Z,14.20
2018-09-24T01:42:48.889Z,14.20
2018-09-24T01:47:52.522Z,14.10
2018-09-24T01:53:01.300Z,14.00
2018-09-24T01:58:04.901Z,14.00
2018-09-24T02:03:10.434Z,13.90
2018-09-24T02:08:15.002Z,13.80
2018-09-24T02:13:18.661Z,13.80
2018-09-24T02:18:22.964Z,13.60
2018-09-24T02:23:26.547Z,13.30
2018-09-24T02:28:30.674Z,13.30
2018-09-24T02:33:34.735Z,13.30
2018-09-24T02:38:40.171Z,13.10
2018-09-24T02:43:43.793Z,13.10
2018-09-24T02:48:47.449Z,13.20
2018-09-24T02:53:51.119Z,13.10
2018-09-24T02:59:13.278Z,12.90
2018-09-24T03:04:16.944Z,12.90
2018-09-24T03:09:20.541Z,12.90
2018-09-24T03:14:27.687Z,13.10
2018-09-24T03:19:32.035Z,13.10
2018-09-24T03:24:35.943Z,13.20
2018-09-24T03:29:39.552Z,13.20
2018-09-24T03:34:43.152Z,13.20
2018-09-24T03:39:48.060Z,13.30
2018-09-24T03:44:52.180Z,13.20
2018-09-24T03:49:55.786Z,13.10
2018-09-24T03:54:59.416Z,13.10
2018-09-24T04:00:03.217Z,13.10
2018-09-24T04:05:12.206Z,13.10
2018-09-24T04:10:28.819Z,13.10
2018-09-24T04:15:41.053Z,13.10
2018-09-24T04:20:50.114Z,13.00
2018-09-24T04:25:59.936Z,12.90
2018-09-24T04:31:08.772Z,12.80
2018-09-24T04:36:17.656Z,12.80
2018-09-24T04:41:26.616Z,12.70
2018-09-24T04:46:42.862Z,12.70
2018-09-24T04:51:51.780Z,12.70
2018-09-24T04:57:01.128Z,12.60
2018-09-24T05:02:10.089Z,12.50
2018-09-24T05:07:18.919Z,12.30
2018-09-24T05:12:28.320Z,12.30
2018-09-24T05:17:37.265Z,12.20
2018-09-24T05:22:46.216Z,12.00
2018-09-24T05:27:55.095Z,12.10
2018-09-24T05:33:04.623Z,12.10
2018-09-24T05:38:13.988Z,12.00
2018-09-24T05:43:24.047Z,12.20
2018-09-24T05:48:32.908Z,12.30
2018-09-24T05:53:41.840Z,12.30
2018-09-24T05:58:50.799Z,12.30
2018-09-24T06:03:59.683Z,12.40
2018-09-24T06:09:08.663Z,12.30
2018-09-24T06:14:17.677Z,12.30
2018-09-24T06:19:26.508Z,12.50
2018-09-24T06:24:35.949Z,12.60
2018-09-24T06:29:45.232Z,12.70
2018-09-24T06:34:54.294Z,12.70
2018-09-24T06:40:03.313Z,12.70
2018-09-24T06:45:14.250Z,12.80
2018-09-24T06:50:23.311Z,13.00
2018-09-24T06:55:32.795Z,13.10
2018-09-24T07:00:41.714Z,13.20
2018-09-24T07:05:50.710Z,13.00
2018-09-24T07:11:02.099Z,13.00
2018-09-24T07:16:11.051Z,13.10
2018-09-24T07:21:20.086Z,13.10
2018-09-24T07:26:29.094Z,13.00
2018-09-24T07:31:37.984Z,13.00
2018-09-24T07:36:46.935Z,13.10
2018-09-24T07:41:55.840Z,13.30
2018-09-24T07:52:19.656Z,13.60
2018-09-24T07:57:28.895Z,13.60
2018-09-24T08:02:37.818Z,13.60
2018-09-24T08:07:48.100Z,13.90
2018-09-24T08:12:57.409Z,14.30
2018-09-24T08:18:06.374Z,14.50
2018-09-24T08:23:15.412Z,14.30
2018-09-24T08:28:24.278Z,14.20
2018-09-24T08:33:33.565Z,14.20
2018-09-24T08:38:42.468Z,14.50
2018-09-24T08:43:51.529Z,14.50
2018-09-24T08:49:02.422Z,14.50
2018-09-24T08:54:16.796Z,15.30
2018-09-24T08:59:25.775Z,18.10
2018-09-24T09:04:34.605Z,19.40
2018-09-24T09:09:43.932Z,17.50
2018-09-24T09:14:52.892Z,18.60
2018-09-24T09:20:03.519Z,18.50
2018-09-24T09:25:14.378Z,17.70
2018-09-24T09:30:23.429Z,16.90
2018-09-24T09:35:32.384Z,17.70
2018-09-24T09:40:41.635Z,20.90
2018-09-24T09:45:50.671Z,21.10
2018-09-24T09:50:59.880Z,20.60
2018-09-24T09:56:08.923Z,20.00
2018-09-24T10:01:18.857Z,19.40
2018-09-24T10:06:27.847Z,19.10
2018-09-24T10:11:39.385Z,19.00
2018-09-24T10:16:48.389Z,18.60
2018-09-24T10:21:57.391Z,18.40
2018-09-24T10:27:06.424Z,18.00
2018-09-24T10:32:15.715Z,17.80
2018-09-24T10:37:24.654Z,17.90
2018-09-24T10:42:33.649Z,17.80
2018-09-24T10:47:42.679Z,18.10
2018-09-24T10:52:51.705Z,18.50
2018-09-24T10:58:00.648Z,18.70
2018-09-24T11:03:09.631Z,19.30
2018-09-24T11:08:19.517Z,19.80
2018-09-24T11:13:28.596Z,19.80
2018-09-24T11:18:37.575Z,19.90
2018-09-24T11:23:46.481Z,19.60
2018-09-24T11:28:55.533Z,19.70
2018-09-24T11:34:04.559Z,19.70
2018-09-24T11:39:14.504Z,15.20
2018-09-24T11:44:23.609Z,19.90
2018-09-24T11:49:32.428Z,20.20
2018-09-24T11:54:43.339Z,20.60
2018-09-24T11:59:52.267Z,21.10
2018-09-24T12:05:02.804Z,21.00
2018-09-24T12:10:12.007Z,20.80
2018-09-24T12:15:21.233Z,20.70
2018-09-24T12:20:30.235Z,20.40
2018-09-24T12:25:39.080Z,19.50
2018-09-24T12:30:48.500Z,18.70
2018-09-24T12:35:57.504Z,19.30
2018-09-24T12:41:06.846Z,19.80
2018-09-24T12:46:18.007Z,19.80
2018-09-24T12:51:27.545Z,19.70
2018-09-24T12:56:37.440Z,19.60
2018-09-24T13:01:46.654Z,19.00
2018-09-24T13:06:55.932Z,18.50
2018-09-24T13:12:05.170Z,18.50
2018-09-24T13:17:14.215Z,18.90
2018-09-24T13:22:23.189Z,20.20
2018-09-24T13:27:32.163Z,20.50
2018-09-24T13:32:41.206Z,21.10
2018-09-24T13:37:50.380Z,22.00
2018-09-24T13:43:00.178Z,22.60
2018-09-24T13:48:09.398Z,21.80
2018-09-24T13:53:18.264Z,21.20
2018-09-24T13:58:27.414Z,21.00
2018-09-24T14:03:38.039Z,20.50
2018-09-24T14:08:47.283Z,20.10
2018-09-24T14:13:56.663Z,19.80
2018-09-24T14:19:05.688Z,20.80
2018-09-24T14:24:16.628Z,22.10
2018-09-24T14:29:25.511Z,22.10
2018-09-24T14:34:34.514Z,23.00
2018-09-24T14:39:43.827Z,23.00
2018-09-24T14:44:52.657Z,23.60
2018-09-24T14:50:02.273Z,24.00
2018-09-24T14:55:11.335Z,24.10
2018-09-24T15:00:20.776Z,23.50
2018-09-24T15:05:29.796Z,23.60
2018-09-24T15:10:38.661Z,22.90
2018-09-24T15:15:47.615Z,22.10
2018-09-24T15:20:56.917Z,21.40
2018-09-24T15:26:06.699Z,21.30
2018-09-24T15:31:16.323Z,21.40
2018-09-24T15:36:25.216Z,21.50
2018-09-24T15:41:33.977Z,21.90
2018-09-24T15:46:43.825Z,21.40
2018-09-24T15:51:56.286Z,21.10
2018-09-24T15:57:05.231Z,20.90
2018-09-24T16:02:15.176Z,20.50
2018-09-24T16:07:24.547Z,20.10
2018-09-24T16:12:33.781Z,19.90
2018-09-24T16:17:42.953Z,19.60
2018-09-24T16:22:51.919Z,19.40
2018-09-24T16:28:01.144Z,19.20
2018-09-24T16:33:09.984Z,19.20
2018-09-24T16:38:19.356Z,20.00
2018-09-24T16:43:28.316Z,20.40
2018-09-24T16:48:37.260Z,19.80
2018-09-24T16:58:56.182Z,18.50
2018-09-24T17:04:05.145Z,18.00
2018-09-24T17:09:14.916Z,17.60
2018-09-24T17:14:23.876Z,17.40
2018-09-24T17:19:32.964Z,17.20
2018-09-24T17:24:42.234Z,16.90
2018-09-24T17:29:51.821Z,16.70
2018-09-24T17:35:03.355Z,16.50
2018-09-24T17:40:14.084Z,16.20
2018-09-24T17:45:24.118Z,16.10
2018-09-24T17:50:35.013Z,15.90
2018-09-24T17:55:43.962Z,15.70
2018-09-24T18:00:54.456Z,15.50
2018-09-24T18:06:04.061Z,15.40
2018-09-24T18:11:13.221Z,15.20
2018-09-24T18:16:28.948Z,15.00
2018-09-24T18:21:39.112Z,14.70
2018-09-24T18:26:49.054Z,14.50
2018-09-24T18:31:58.604Z,14.40
2018-09-24T18:37:07.563Z,14.30
2018-09-24T18:42:16.329Z,14.10
2018-09-24T18:47:25.280Z,14.10
2018-09-24T18:52:34.339Z,13.90
2018-09-24T18:57:43.352Z,14.00
2018-09-24T19:02:52.240Z,13.90
2018-09-24T19:08:01.205Z,13.80
2018-09-24T19:13:10.938Z,13.70
2018-09-24T19:18:19.940Z,14.00
2018-09-24T19:23:29.278Z,13.80
2018-09-24T19:28:38.276Z,13.60
2018-09-24T19:33:47.323Z,13.20
2018-09-24T19:38:56.127Z,13.10
2018-09-24T19:44:05.144Z,12.90
2018-09-24T19:49:14.073Z,12.90
2018-09-24T19:54:24.379Z,12.80
2018-09-24T19:59:33.208Z,13.00
2018-09-24T20:04:42.047Z,12.90
2018-09-24T20:09:51.024Z,13.00
2018-09-24T20:15:00.904Z,13.00
2018-09-24T20:20:10.035Z,12.90
2018-09-24T20:25:19.664Z,12.70
2018-09-24T20:30:28.631Z,12.70
2018-09-24T20:35:38.026Z,12.60
2018-09-24T20:40:47.224Z,12.40
2018-09-24T20:45:56.185Z,12.40
2018-09-24T20:51:05.022Z,12.30
2018-09-24T20:56:14.023Z,12.00
2018-09-24T21:01:23.163Z,12.00
2018-09-24T21:06:32.172Z,12.00
2018-09-24T21:11:41.941Z,12.00
2018-09-24T21:16:51.008Z,11.90
2018-09-24T21:21:59.945Z,11.90
2018-09-24T21:27:10.743Z,12.00
2018-09-24T21:32:20.007Z,11.90
2018-09-24T21:37:29.358Z,11.90
2018-09-24T21:42:38.544Z,11.80
2018-09-24T21:47:48.313Z,11.80
2018-09-24T21:52:58.444Z,11.80
2018-09-24T21:58:08.419Z,11.70
2018-09-24T22:03:17.655Z,11.90
2018-09-24T22:08:26.923Z,11.90
2018-09-24T22:13:35.818Z,11.90
2018-09-24T22:18:45.408Z,11.80
2018-09-24T22:23:55.289Z,11.70
2018-09-24T22:29:04.540Z,11.60
2018-09-24T22:34:13.523Z,11.50
2018-09-24T22:39:23.721Z,11.40
2018-09-24T22:44:32.527Z,11.10
2018-09-24T22:49:41.931Z,11.10
2018-09-24T22:54:51.140Z,11.00
2018-09-24T23:00:00.721Z,11.00
2018-09-24T23:05:09.553Z,11.00
2018-09-24T23:10:18.579Z,11.00
2018-09-24T23:15:27.595Z,11.00
2018-09-24T23:20:36.707Z,11.10
2018-09-24T23:25:45.808Z,11.00
2018-09-24T23:30:54.904Z,10.90
2018-09-24T23:36:03.798Z,10.90
2018-09-24T23:41:12.883Z,10.90
2018-09-24T23:46:21.851Z,10.90
2018-09-24T23:51:30.788Z,10.90
2018-09-24T23:56:40.263Z,11.00
